sensor_id;sensor_type;location;lat;lon;timestamp;temperature;humidity
27492;DHT22;14927;51.210;6.838;2024-02-04T00:02:14;14.60;73.70
27492;DHT22;14927;51.210;6.838;2024-02-04T00:04:59;14.80;74.60
27492;DHT22;14927;51.210;6.838;2024-02-04T00:07:44;14.60;73.80
27492;DHT22;14927;51.210;6.838;2024-02-04T00:10:29;14.60;73.80
27492;DHT22;14927;51.210;6.838;2024-02-04T00:13:14;14.60;73.80
27492;DHT22;14927;51.210;6.838;2024-02-04T00:15:58;14.60;73.80
27492;DHT22;14927;51.210;6.838;2024-02-04T00:18:43;14.60;73.90
27492;DHT22;14927;51.210;6.838;2024-02-04T00:21:27;14.60;73.90
27492;DHT22;14927;51.210;6.838;2024-02-04T00:24:12;14.60;73.90
27492;DHT22;14927;51.210;6.838;2024-02-04T00:26:56;14.60;73.90
27492;DHT22;14927;51.210;6.838;2024-02-04T00:29:41;14.60;73.90
27492;DHT22;14927;51.210;6.838;2024-02-04T00:32:26;14.60;73.90
27492;DHT22;14927;51.210;6.838;2024-02-04T00:35:11;14.60;73.90
27492;DHT22;14927;51.210;6.838;2024-02-04T00:37:56;14.60;73.90
27492;DHT22;14927;51.210;6.838;2024-02-04T00:40:41;14.60;73.90
27492;DHT22;14927;51.210;6.838;2024-02-04T00:43:27;14.60;73.90
27492;DHT22;14927;51.210;6.838;2024-02-04T00:46:12;14.60;73.90
27492;DHT22;14927;51.210;6.838;2024-02-04T00:48:56;14.50;74.00
27492;DHT22;14927;51.210;6.838;2024-02-04T00:51:41;14.50;74.10
27492;DHT22;14927;51.210;6.838;2024-02-04T00:54:26;14.50;74.20
27492;DHT22;14927;51.210;6.838;2024-02-04T00:57:13;14.50;74.40
27492;DHT22;14927;51.210;6.838;2024-02-04T00:59:58;14.50;74.50
27492;DHT22;14927;51.210;6.838;2024-02-04T01:02:44;14.50;74.50
27492;DHT22;14927;51.210;6.838;2024-02-04T01:05:29;14.50;74.70
27492;DHT22;14927;51.210;6.838;2024-02-04T01:16:14;14.40;75.10
27492;DHT22;14927;51.210;6.838;2024-02-04T01:37:43;14.40;75.50
27492;DHT22;14927;51.210;6.838;2024-02-04T01:40:27;14.30;75.50
27492;DHT22;14927;51.210;6.838;2024-02-04T01:43:12;14.40;75.60
27492;DHT22;14927;51.210;6.838;2024-02-04T01:45:57;14.40;75.70
27492;DHT22;14927;51.210;6.838;2024-02-04T01:48:42;14.40;75.60
27492;DHT22;14927;51.210;6.838;2024-02-04T01:51:26;14.40;75.60
27492;DHT22;14927;51.210;6.838;2024-02-04T01:54:11;14.50;75.80
27492;DHT22;14927;51.210;6.838;2024-02-04T01:56:56;14.50;75.80
27492;DHT22;14927;51.210;6.838;2024-02-04T01:59:42;14.40;75.80
27492;DHT22;14927;51.210;6.838;2024-02-04T02:02:28;14.40;75.80
27492;DHT22;14927;51.210;6.838;2024-02-04T02:05:13;14.40;75.80
27492;DHT22;14927;51.210;6.838;2024-02-04T02:07:58;14.40;75.80
27492;DHT22;14927;51.210;6.838;2024-02-04T02:10:45;14.50;75.90
27492;DHT22;14927;51.210;6.838;2024-02-04T02:13:32;14.40;75.90
27492;DHT22;14927;51.210;6.838;2024-02-04T02:16:19;14.40;75.80
27492;DHT22;14927;51.210;6.838;2024-02-04T02:22:49;14.40;76.20
27492;DHT22;14927;51.210;6.838;2024-02-04T02:25:45;14.50;76.10
27492;DHT22;14927;51.210;6.838;2024-02-04T02:28:30;14.40;75.80
27492;DHT22;14927;51.210;6.838;2024-02-04T02:31:15;14.50;75.90
27492;DHT22;14927;51.210;6.838;2024-02-04T02:33:59;14.40;75.90
27492;DHT22;14927;51.210;6.838;2024-02-04T02:36:45;14.50;76.10
27492;DHT22;14927;51.210;6.838;2024-02-04T02:42:52;14.40;76.30
27492;DHT22;14927;51.210;6.838;2024-02-04T02:45:43;14.40;76.00
27492;DHT22;14927;51.210;6.838;2024-02-04T02:48:27;14.40;76.10
27492;DHT22;14927;51.210;6.838;2024-02-04T02:51:12;14.50;76.20
27492;DHT22;14927;51.210;6.838;2024-02-04T02:53:56;14.50;76.20
27492;DHT22;14927;51.210;6.838;2024-02-04T02:56:41;14.50;76.30
27492;DHT22;14927;51.210;6.838;2024-02-04T02:59:25;14.50;76.30
27492;DHT22;14927;51.210;6.838;2024-02-04T03:02:10;14.60;76.40
27492;DHT22;14927;51.210;6.838;2024-02-04T03:04:55;14.50;76.20
27492;DHT22;14927;51.210;6.838;2024-02-04T03:07:39;14.50;76.20
27492;DHT22;14927;51.210;6.838;2024-02-04T03:10:24;14.50;76.30
27492;DHT22;14927;51.210;6.838;2024-02-04T03:13:09;14.50;76.30
27492;DHT22;14927;51.210;6.838;2024-02-04T03:15:53;14.50;77.00
27492;DHT22;14927;51.210;6.838;2024-02-04T03:18:42;14.50;76.30
27492;DHT22;14927;51.210;6.838;2024-02-04T03:21:28;14.50;76.30
27492;DHT22;14927;51.210;6.838;2024-02-04T03:24:12;14.50;76.20
27492;DHT22;14927;51.210;6.838;2024-02-04T03:26:57;14.60;76.30
27492;DHT22;14927;51.210;6.838;2024-02-04T03:29:42;14.50;76.20
27492;DHT22;14927;51.210;6.838;2024-02-04T03:32:26;14.50;76.20
27492;DHT22;14927;51.210;6.838;2024-02-04T03:35:11;14.60;76.20
27492;DHT22;14927;51.210;6.838;2024-02-04T03:37:55;14.50;76.20
27492;DHT22;14927;51.210;6.838;2024-02-04T03:40:40;14.40;76.20
27492;DHT22;14927;51.210;6.838;2024-02-04T03:43:26;14.50;76.20
27492;DHT22;14927;51.210;6.838;2024-02-04T03:46:15;14.60;76.30
27492;DHT22;14927;51.210;6.838;2024-02-04T03:49:01;14.60;76.40
27492;DHT22;14927;51.210;6.838;2024-02-04T03:51:46;14.60;76.20
27492;DHT22;14927;51.210;6.838;2024-02-04T03:54:31;14.60;76.20
27492;DHT22;14927;51.210;6.838;2024-02-04T03:57:16;14.60;76.20
27492;DHT22;14927;51.210;6.838;2024-02-04T04:00:00;14.60;76.20
27492;DHT22;14927;51.210;6.838;2024-02-04T04:02:45;14.60;75.70
27492;DHT22;14927;51.210;6.838;2024-02-04T04:05:29;14.60;76.30
27492;DHT22;14927;51.210;6.838;2024-02-04T04:08:14;14.70;76.30
27492;DHT22;14927;51.210;6.838;2024-02-04T04:10:59;14.60;76.20
27492;DHT22;14927;51.210;6.838;2024-02-04T04:13:43;14.60;76.20
27492;DHT22;14927;51.210;6.838;2024-02-04T04:16:28;14.60;76.20
27492;DHT22;14927;51.210;6.838;2024-02-04T04:19:13;14.60;76.20
27492;DHT22;14927;51.210;6.838;2024-02-04T04:21:57;14.70;76.20
27492;DHT22;14927;51.210;6.838;2024-02-04T04:24:43;14.60;76.10
27492;DHT22;14927;51.210;6.838;2024-02-04T04:27:28;14.60;76.10
27492;DHT22;14927;51.210;6.838;2024-02-04T04:30:13;14.70;76.20
27492;DHT22;14927;51.210;6.838;2024-02-04T04:32:57;14.60;76.00
27492;DHT22;14927;51.210;6.838;2024-02-04T04:35:42;14.60;76.00
27492;DHT22;14927;51.210;6.838;2024-02-04T04:38:27;14.70;76.00
27492;DHT22;14927;51.210;6.838;2024-02-04T04:41:11;14.70;76.00
27492;DHT22;14927;51.210;6.838;2024-02-04T04:43:56;14.70;75.90
27492;DHT22;14927;51.210;6.838;2024-02-04T04:46:41;14.70;75.90
27492;DHT22;14927;51.210;6.838;2024-02-04T04:49:25;14.70;75.80
27492;DHT22;14927;51.210;6.838;2024-02-04T04:52:10;14.70;75.80
27492;DHT22;14927;51.210;6.838;2024-02-04T04:54:55;14.70;75.70
27492;DHT22;14927;51.210;6.838;2024-02-04T04:57:40;14.70;75.50
27492;DHT22;14927;51.210;6.838;2024-02-04T05:00:24;14.70;75.50
27492;DHT22;14927;51.210;6.838;2024-02-04T05:03:09;14.70;76.20
27492;DHT22;14927;51.210;6.838;2024-02-04T05:05:54;14.70;75.40
27492;DHT22;14927;51.210;6.838;2024-02-04T05:08:38;14.70;75.30
27492;DHT22;14927;51.210;6.838;2024-02-04T05:11:23;14.70;75.20
27492;DHT22;14927;51.210;6.838;2024-02-04T05:14:07;14.70;75.20
27492;DHT22;14927;51.210;6.838;2024-02-04T05:16:52;14.70;75.10
27492;DHT22;14927;51.210;6.838;2024-02-04T05:19:41;14.70;75.10
27492;DHT22;14927;51.210;6.838;2024-02-04T05:22:26;14.70;75.10
27492;DHT22;14927;51.210;6.838;2024-02-04T05:25:11;14.70;75.00
27492;DHT22;14927;51.210;6.838;2024-02-04T05:27:56;14.50;74.90
27492;DHT22;14927;51.210;6.838;2024-02-04T05:30:41;14.70;75.00
27492;DHT22;14927;51.210;6.838;2024-02-04T05:33:25;14.70;75.00
27492;DHT22;14927;51.210;6.838;2024-02-04T05:36:13;14.70;75.00
27492;DHT22;14927;51.210;6.838;2024-02-04T05:38:57;14.70;74.90
27492;DHT22;14927;51.210;6.838;2024-02-04T05:41:53;14.70;75.00
27492;DHT22;14927;51.210;6.838;2024-02-04T05:44:38;14.70;74.90
27492;DHT22;14927;51.210;6.838;2024-02-04T05:47:22;14.70;74.80
27492;DHT22;14927;51.210;6.838;2024-02-04T05:50:07;14.70;74.80
27492;DHT22;14927;51.210;6.838;2024-02-04T05:52:52;14.70;74.70
27492;DHT22;14927;51.210;6.838;2024-02-04T05:55:36;14.70;74.70
27492;DHT22;14927;51.210;6.838;2024-02-04T05:58:21;14.70;74.70
27492;DHT22;14927;51.210;6.838;2024-02-04T06:01:06;14.70;74.70
27492;DHT22;14927;51.210;6.838;2024-02-04T06:03:52;14.70;74.70
27492;DHT22;14927;51.210;6.838;2024-02-04T06:06:36;14.70;74.60
27492;DHT22;14927;51.210;6.838;2024-02-04T06:09:21;14.70;74.60
27492;DHT22;14927;51.210;6.838;2024-02-04T06:12:06;14.70;74.60
27492;DHT22;14927;51.210;6.838;2024-02-04T06:14:50;14.70;74.60
27492;DHT22;14927;51.210;6.838;2024-02-04T06:17:35;14.70;74.50
27492;DHT22;14927;51.210;6.838;2024-02-04T06:20:19;14.70;74.50
27492;DHT22;14927;51.210;6.838;2024-02-04T06:23:04;14.70;74.50
27492;DHT22;14927;51.210;6.838;2024-02-04T06:25:49;14.70;74.50
27492;DHT22;14927;51.210;6.838;2024-02-04T06:28:33;14.70;74.50
27492;DHT22;14927;51.210;6.838;2024-02-04T06:31:21;14.70;74.60
27492;DHT22;14927;51.210;6.838;2024-02-04T06:34:12;14.70;74.50
27492;DHT22;14927;51.210;6.838;2024-02-04T06:36:57;14.70;74.40
27492;DHT22;14927;51.210;6.838;2024-02-04T06:39:43;14.70;75.10
27492;DHT22;14927;51.210;6.838;2024-02-04T06:42:27;14.70;74.40
27492;DHT22;14927;51.210;6.838;2024-02-04T06:45:12;14.70;74.40
27492;DHT22;14927;51.210;6.838;2024-02-04T06:47:56;14.70;74.40
27492;DHT22;14927;51.210;6.838;2024-02-04T06:50:41;14.70;74.50
27492;DHT22;14927;51.210;6.838;2024-02-04T06:53:27;14.70;74.60
27492;DHT22;14927;51.210;6.838;2024-02-04T06:56:12;14.70;74.60
27492;DHT22;14927;51.210;6.838;2024-02-04T06:58:56;14.70;74.60
27492;DHT22;14927;51.210;6.838;2024-02-04T07:01:41;14.70;74.70
27492;DHT22;14927;51.210;6.838;2024-02-04T07:04:25;14.70;74.80
27492;DHT22;14927;51.210;6.838;2024-02-04T07:07:10;14.70;75.70
27492;DHT22;14927;51.210;6.838;2024-02-04T07:09:54;14.60;74.90
27492;DHT22;14927;51.210;6.838;2024-02-04T07:12:39;14.60;75.00
27492;DHT22;14927;51.210;6.838;2024-02-04T07:15:24;14.80;75.20
27492;DHT22;14927;51.210;6.838;2024-02-04T07:18:09;14.60;75.10
27492;DHT22;14927;51.210;6.838;2024-02-04T07:20:54;14.60;75.20
27492;DHT22;14927;51.210;6.838;2024-02-04T07:23:38;14.60;75.20
27492;DHT22;14927;51.210;6.838;2024-02-04T07:26:23;14.60;75.30
27492;DHT22;14927;51.210;6.838;2024-02-04T07:29:07;14.60;75.30
27492;DHT22;14927;51.210;6.838;2024-02-04T07:31:52;14.70;75.40
27492;DHT22;14927;51.210;6.838;2024-02-04T07:34:37;14.60;75.40
27492;DHT22;14927;51.210;6.838;2024-02-04T07:37:21;14.70;75.50
27492;DHT22;14927;51.210;6.838;2024-02-04T07:40:07;14.70;75.50
27492;DHT22;14927;51.210;6.838;2024-02-04T07:42:51;14.70;75.50
27492;DHT22;14927;51.210;6.838;2024-02-04T07:45:36;14.70;75.60
27492;DHT22;14927;51.210;6.838;2024-02-04T07:48:21;14.70;75.70
27492;DHT22;14927;51.210;6.838;2024-02-04T07:51:07;14.60;75.70
27492;DHT22;14927;51.210;6.838;2024-02-04T07:53:51;14.70;75.70
27492;DHT22;14927;51.210;6.838;2024-02-04T07:56:36;14.70;75.80
27492;DHT22;14927;51.210;6.838;2024-02-04T07:59:21;14.70;75.90
27492;DHT22;14927;51.210;6.838;2024-02-04T08:02:06;14.70;76.00
27492;DHT22;14927;51.210;6.838;2024-02-04T08:04:51;14.70;76.00
27492;DHT22;14927;51.210;6.838;2024-02-04T08:07:35;14.70;76.00
27492;DHT22;14927;51.210;6.838;2024-02-04T08:10:20;14.70;76.00
27492;DHT22;14927;51.210;6.838;2024-02-04T08:13:05;14.70;76.00
27492;DHT22;14927;51.210;6.838;2024-02-04T08:15:49;14.70;75.90
27492;DHT22;14927;51.210;6.838;2024-02-04T08:18:34;14.70;75.90
27492;DHT22;14927;51.210;6.838;2024-02-04T08:21:18;14.70;75.90
27492;DHT22;14927;51.210;6.838;2024-02-04T08:24:03;14.80;76.80
27492;DHT22;14927;51.210;6.838;2024-02-04T08:26:48;14.70;75.80
27492;DHT22;14927;51.210;6.838;2024-02-04T08:29:32;14.70;75.90
27492;DHT22;14927;51.210;6.838;2024-02-04T08:32:17;14.70;75.90
27492;DHT22;14927;51.210;6.838;2024-02-04T08:35:01;14.70;75.70
27492;DHT22;14927;51.210;6.838;2024-02-04T08:37:46;14.70;75.80
27492;DHT22;14927;51.210;6.838;2024-02-04T08:40:30;14.70;75.90
27492;DHT22;14927;51.210;6.838;2024-02-04T08:43:15;14.80;75.90
27492;DHT22;14927;51.210;6.838;2024-02-04T08:46:00;14.80;75.80
27492;DHT22;14927;51.210;6.838;2024-02-04T08:48:45;14.80;75.80
27492;DHT22;14927;51.210;6.838;2024-02-04T08:51:29;14.80;75.80
27492;DHT22;14927;51.210;6.838;2024-02-04T08:54:14;14.80;75.90
27492;DHT22;14927;51.210;6.838;2024-02-04T08:56:59;14.80;75.90
27492;DHT22;14927;51.210;6.838;2024-02-04T08:59:43;14.80;75.90
27492;DHT22;14927;51.210;6.838;2024-02-04T09:02:28;14.90;76.00
27492;DHT22;14927;51.210;6.838;2024-02-04T09:05:16;14.80;75.90
27492;DHT22;14927;51.210;6.838;2024-02-04T09:08:05;14.80;75.80
27492;DHT22;14927;51.210;6.838;2024-02-04T09:10:51;14.90;75.80
27492;DHT22;14927;51.210;6.838;2024-02-04T09:13:46;15.00;75.90
27492;DHT22;14927;51.210;6.838;2024-02-04T09:16:36;14.90;75.60
27492;DHT22;14927;51.210;6.838;2024-02-04T09:19:24;15.00;75.60
27492;DHT22;14927;51.210;6.838;2024-02-04T09:22:22;15.00;75.50
27492;DHT22;14927;51.210;6.838;2024-02-04T09:25:17;15.10;75.40
27492;DHT22;14927;51.210;6.838;2024-02-04T09:28:02;15.00;75.30
27492;DHT22;14927;51.210;6.838;2024-02-04T09:34:55;15.30;75.40
27492;DHT22;14927;51.210;6.838;2024-02-04T09:37:46;15.10;75.00
27492;DHT22;14927;51.210;6.838;2024-02-04T09:40:52;15.10;75.00
27492;DHT22;14927;51.210;6.838;2024-02-04T09:43:47;14.90;75.20
27492;DHT22;14927;51.210;6.838;2024-02-04T09:50:46;15.00;75.30
27492;DHT22;14927;51.210;6.838;2024-02-04T09:53:52;15.20;75.00
27492;DHT22;14927;51.210;6.838;2024-02-04T09:57:11;15.20;75.00
27492;DHT22;14927;51.210;6.838;2024-02-04T10:04:33;15.20;74.80
27492;DHT22;14927;51.210;6.838;2024-02-04T10:07:26;15.10;74.40
27492;DHT22;14927;51.210;6.838;2024-02-04T10:10:14;15.20;74.50
27492;DHT22;14927;51.210;6.838;2024-02-04T10:12:58;15.30;74.60
27492;DHT22;14927;51.210;6.838;2024-02-04T10:15:57;15.30;74.70
27492;DHT22;14927;51.210;6.838;2024-02-04T10:18:52;15.30;74.80
27492;DHT22;14927;51.210;6.838;2024-02-04T10:21:40;15.30;74.80
27492;DHT22;14927;51.210;6.838;2024-02-04T10:24:34;15.30;74.70
27492;DHT22;14927;51.210;6.838;2024-02-04T10:27:42;15.30;74.50
27492;DHT22;14927;51.210;6.838;2024-02-04T10:34:53;15.50;74.60
27492;DHT22;14927;51.210;6.838;2024-02-04T10:38:14;15.50;74.00
27492;DHT22;14927;51.210;6.838;2024-02-04T10:41:06;15.60;74.10
27492;DHT22;14927;51.210;6.838;2024-02-04T10:45:03;15.60;73.80
27492;DHT22;14927;51.210;6.838;2024-02-04T10:54:15;15.50;73.30
27492;DHT22;14927;51.210;6.838;2024-02-04T11:10:53;15.50;73.30
27492;DHT22;14927;51.210;6.838;2024-02-04T11:13:48;15.50;73.30
27492;DHT22;14927;51.210;6.838;2024-02-04T11:20:52;15.50;73.30
27492;DHT22;14927;51.210;6.838;2024-02-04T11:28:37;15.40;73.40
27492;DHT22;14927;51.210;6.838;2024-02-04T11:35:03;15.60;73.70
27492;DHT22;14927;51.210;6.838;2024-02-04T11:38:01;15.60;73.60
27492;DHT22;14927;51.210;6.838;2024-02-04T11:41:20;15.50;73.70
27492;DHT22;14927;51.210;6.838;2024-02-04T11:44:26;15.30;73.80
27492;DHT22;14927;51.210;6.838;2024-02-04T11:51:28;15.50;74.00
27492;DHT22;14927;51.210;6.838;2024-02-04T11:54:49;15.50;74.00
27492;DHT22;14927;51.210;6.838;2024-02-04T11:58:08;15.50;73.60
27492;DHT22;14927;51.210;6.838;2024-02-04T12:01:30;15.50;73.60
27492;DHT22;14927;51.210;6.838;2024-02-04T12:04:31;15.50;73.70
27492;DHT22;14927;51.210;6.838;2024-02-04T12:07:46;15.40;73.60
27492;DHT22;14927;51.210;6.838;2024-02-04T12:10:57;15.40;73.40
27492;DHT22;14927;51.210;6.838;2024-02-04T12:14:44;15.50;73.30
27492;DHT22;14927;51.210;6.838;2024-02-04T12:18:05;15.50;73.30
27492;DHT22;14927;51.210;6.838;2024-02-04T12:21:20;15.60;73.30
27492;DHT22;14927;51.210;6.838;2024-02-04T12:24:09;15.60;73.20
27492;DHT22;14927;51.210;6.838;2024-02-04T12:26:55;15.60;73.10
27492;DHT22;14927;51.210;6.838;2024-02-04T12:29:45;15.60;73.20
27492;DHT22;14927;51.210;6.838;2024-02-04T12:32:44;15.60;73.30
27492;DHT22;14927;51.210;6.838;2024-02-04T12:35:32;15.50;73.20
27492;DHT22;14927;51.210;6.838;2024-02-04T12:38:26;15.50;73.20
27492;DHT22;14927;51.210;6.838;2024-02-04T12:41:30;15.50;73.20
27492;DHT22;14927;51.210;6.838;2024-02-04T12:45:01;15.50;73.20
27492;DHT22;14927;51.210;6.838;2024-02-04T12:47:52;15.40;73.10
27492;DHT22;14927;51.210;6.838;2024-02-04T12:50:38;15.50;73.30
27492;DHT22;14927;51.210;6.838;2024-02-04T12:53:23;15.50;73.30
27492;DHT22;14927;51.210;6.838;2024-02-04T12:56:10;15.50;73.30
27492;DHT22;14927;51.210;6.838;2024-02-04T12:58:57;15.50;73.50
27492;DHT22;14927;51.210;6.838;2024-02-04T13:01:42;15.60;73.50
27492;DHT22;14927;51.210;6.838;2024-02-04T13:04:41;15.50;73.50
27492;DHT22;14927;51.210;6.838;2024-02-04T13:07:45;15.60;73.50
27492;DHT22;14927;51.210;6.838;2024-02-04T13:10:31;15.50;73.50
27492;DHT22;14927;51.210;6.838;2024-02-04T13:13:31;15.60;73.70
27492;DHT22;14927;51.210;6.838;2024-02-04T13:16:42;15.50;73.60
27492;DHT22;14927;51.210;6.838;2024-02-04T13:19:34;15.50;73.50
27492;DHT22;14927;51.210;6.838;2024-02-04T13:22:20;15.50;73.50
27492;DHT22;14927;51.210;6.838;2024-02-04T13:25:07;15.50;73.50
27492;DHT22;14927;51.210;6.838;2024-02-04T13:28:04;15.30;73.40
27492;DHT22;14927;51.210;6.838;2024-02-04T13:30:48;15.60;73.70
27492;DHT22;14927;51.210;6.838;2024-02-04T13:33:33;15.50;73.70
27492;DHT22;14927;51.210;6.838;2024-02-04T13:36:28;15.40;73.70
27492;DHT22;14927;51.210;6.838;2024-02-04T13:39:18;15.30;73.40
27492;DHT22;14927;51.210;6.838;2024-02-04T13:42:05;15.50;73.50
27492;DHT22;14927;51.210;6.838;2024-02-04T13:44:50;15.50;73.30
27492;DHT22;14927;51.210;6.838;2024-02-04T13:47:35;15.50;73.30
27492;DHT22;14927;51.210;6.838;2024-02-04T13:50:21;15.50;73.30
27492;DHT22;14927;51.210;6.838;2024-02-04T13:53:05;15.50;73.20
27492;DHT22;14927;51.210;6.838;2024-02-04T13:55:50;15.50;73.20
27492;DHT22;14927;51.210;6.838;2024-02-04T13:58:34;15.50;73.10
27492;DHT22;14927;51.210;6.838;2024-02-04T14:01:20;15.50;73.10
27492;DHT22;14927;51.210;6.838;2024-02-04T14:04:07;15.50;72.90
27492;DHT22;14927;51.210;6.838;2024-02-04T14:06:59;15.50;72.60
27492;DHT22;14927;51.210;6.838;2024-02-04T14:09:47;15.50;72.70
27492;DHT22;14927;51.210;6.838;2024-02-04T14:12:32;15.50;72.80
27492;DHT22;14927;51.210;6.838;2024-02-04T14:15:17;15.50;72.90
27492;DHT22;14927;51.210;6.838;2024-02-04T14:18:24;15.40;72.90
27492;DHT22;14927;51.210;6.838;2024-02-04T14:21:58;15.50;73.00
27492;DHT22;14927;51.210;6.838;2024-02-04T14:25:06;15.50;73.00
27492;DHT22;14927;51.210;6.838;2024-02-04T14:28:02;15.50;72.70
27492;DHT22;14927;51.210;6.838;2024-02-04T14:31:46;15.50;72.80
27492;DHT22;14927;51.210;6.838;2024-02-04T14:34:51;15.40;72.90
27492;DHT22;14927;51.210;6.838;2024-02-04T14:37:45;15.50;73.00
27492;DHT22;14927;51.210;6.838;2024-02-04T14:40:33;15.70;73.10
27492;DHT22;14927;51.210;6.838;2024-02-04T14:50:54;15.40;73.00
27492;DHT22;14927;51.210;6.838;2024-02-04T14:53:59;15.50;73.10
27492;DHT22;14927;51.210;6.838;2024-02-04T14:57:07;15.50;73.10
27492;DHT22;14927;51.210;6.838;2024-02-04T15:03:44;15.40;72.60
27492;DHT22;14927;51.210;6.838;2024-02-04T15:06:29;15.40;72.60
27492;DHT22;14927;51.210;6.838;2024-02-04T15:09:19;15.40;72.70
27492;DHT22;14927;51.210;6.838;2024-02-04T15:12:11;15.50;72.70
27492;DHT22;14927;51.210;6.838;2024-02-04T15:16:15;15.40;72.70
27492;DHT22;14927;51.210;6.838;2024-02-04T15:19:16;15.20;72.40
27492;DHT22;14927;51.210;6.838;2024-02-04T15:22:50;15.40;73.30
27492;DHT22;14927;51.210;6.838;2024-02-04T15:26:04;15.50;72.50
27492;DHT22;14927;51.210;6.838;2024-02-04T15:28:52;15.40;72.40
27492;DHT22;14927;51.210;6.838;2024-02-04T15:31:40;15.40;72.40
27492;DHT22;14927;51.210;6.838;2024-02-04T15:38:10;15.40;72.50
27492;DHT22;14927;51.210;6.838;2024-02-04T15:40:56;15.40;72.60
27492;DHT22;14927;51.210;6.838;2024-02-04T15:43:43;15.60;72.60
27492;DHT22;14927;51.210;6.838;2024-02-04T15:46:37;15.30;72.50
27492;DHT22;14927;51.210;6.838;2024-02-04T15:49:44;15.40;72.40
27492;DHT22;14927;51.210;6.838;2024-02-04T15:52:43;15.40;72.40
27492;DHT22;14927;51.210;6.838;2024-02-04T15:55:42;15.40;72.20
27492;DHT22;14927;51.210;6.838;2024-02-04T15:58:44;15.40;72.20
27492;DHT22;14927;51.210;6.838;2024-02-04T16:01:45;15.40;72.20
27492;DHT22;14927;51.210;6.838;2024-02-04T16:05:36;15.40;72.20
27492;DHT22;14927;51.210;6.838;2024-02-04T16:08:23;15.40;72.40
27492;DHT22;14927;51.210;6.838;2024-02-04T16:11:24;15.40;72.20
27492;DHT22;14927;51.210;6.838;2024-02-04T16:18:12;15.20;72.30
27492;DHT22;14927;51.210;6.838;2024-02-04T16:21:04;15.40;71.80
27492;DHT22;14927;51.210;6.838;2024-02-04T16:23:55;15.40;71.90
27492;DHT22;14927;51.210;6.838;2024-02-04T16:26:45;15.40;72.00
27492;DHT22;14927;51.210;6.838;2024-02-04T16:29:30;15.40;72.10
27492;DHT22;14927;51.210;6.838;2024-02-04T16:32:14;15.40;72.00
27492;DHT22;14927;51.210;6.838;2024-02-04T16:34:59;15.30;72.00
27492;DHT22;14927;51.210;6.838;2024-02-04T16:38:09;15.40;72.20
27492;DHT22;14927;51.210;6.838;2024-02-04T16:41:36;15.40;72.30
27492;DHT22;14927;51.210;6.838;2024-02-04T16:44:20;15.30;72.10
27492;DHT22;14927;51.210;6.838;2024-02-04T16:47:22;15.30;72.00
27492;DHT22;14927;51.210;6.838;2024-02-04T16:50:08;15.30;72.00
27492;DHT22;14927;51.210;6.838;2024-02-04T16:52:53;15.30;72.00
27492;DHT22;14927;51.210;6.838;2024-02-04T16:55:38;15.30;72.00
27492;DHT22;14927;51.210;6.838;2024-02-04T16:58:22;15.30;72.00
27492;DHT22;14927;51.210;6.838;2024-02-04T17:01:07;15.30;72.00
27492;DHT22;14927;51.210;6.838;2024-02-04T17:03:52;15.30;72.00
27492;DHT22;14927;51.210;6.838;2024-02-04T17:06:41;15.30;72.00
27492;DHT22;14927;51.210;6.838;2024-02-04T17:09:28;15.30;71.80
27492;DHT22;14927;51.210;6.838;2024-02-04T17:12:14;15.30;71.80
27492;DHT22;14927;51.210;6.838;2024-02-04T17:15:00;15.30;71.60
27492;DHT22;14927;51.210;6.838;2024-02-04T17:17:47;15.30;71.60
27492;DHT22;14927;51.210;6.838;2024-02-04T17:20:47;15.30;71.50
27492;DHT22;14927;51.210;6.838;2024-02-04T17:23:37;15.20;71.20
27492;DHT22;14927;51.210;6.838;2024-02-04T17:26:27;15.30;71.20
27492;DHT22;14927;51.210;6.838;2024-02-04T17:29:19;15.30;71.20
27492;DHT22;14927;51.210;6.838;2024-02-04T17:32:04;15.30;71.20
27492;DHT22;14927;51.210;6.838;2024-02-04T17:34:53;15.30;71.20
27492;DHT22;14927;51.210;6.838;2024-02-04T17:37:38;15.30;71.20
27492;DHT22;14927;51.210;6.838;2024-02-04T17:40:23;15.30;71.20
27492;DHT22;14927;51.210;6.838;2024-02-04T17:43:09;15.30;71.20
27492;DHT22;14927;51.210;6.838;2024-02-04T17:46:00;15.30;71.20
27492;DHT22;14927;51.210;6.838;2024-02-04T17:48:45;15.20;71.20
27492;DHT22;14927;51.210;6.838;2024-02-04T17:51:33;15.30;71.30
27492;DHT22;14927;51.210;6.838;2024-02-04T17:54:17;15.30;71.30
27492;DHT22;14927;51.210;6.838;2024-02-04T17:57:02;15.30;71.30
27492;DHT22;14927;51.210;6.838;2024-02-04T17:59:52;15.30;71.30
27492;DHT22;14927;51.210;6.838;2024-02-04T18:02:37;15.30;71.30
27492;DHT22;14927;51.210;6.838;2024-02-04T18:05:22;15.30;71.40
27492;DHT22;14927;51.210;6.838;2024-02-04T18:08:07;15.30;71.30
27492;DHT22;14927;51.210;6.838;2024-02-04T18:10:52;15.30;71.40
27492;DHT22;14927;51.210;6.838;2024-02-04T18:13:37;15.30;71.40
27492;DHT22;14927;51.210;6.838;2024-02-04T18:16:25;15.30;71.40
27492;DHT22;14927;51.210;6.838;2024-02-04T18:19:10;15.30;71.50
27492;DHT22;14927;51.210;6.838;2024-02-04T18:21:57;15.20;71.60
27492;DHT22;14927;51.210;6.838;2024-02-04T18:24:45;15.00;71.60
27492;DHT22;14927;51.210;6.838;2024-02-04T18:27:30;15.30;71.70
27492;DHT22;14927;51.210;6.838;2024-02-04T18:30:25;15.30;71.60
27492;DHT22;14927;51.210;6.838;2024-02-04T18:33:23;15.20;71.60
27492;DHT22;14927;51.210;6.838;2024-02-04T18:36:11;15.20;71.60
27492;DHT22;14927;51.210;6.838;2024-02-04T18:38:57;15.30;71.80
27492;DHT22;14927;51.210;6.838;2024-02-04T18:41:47;15.20;71.80
27492;DHT22;14927;51.210;6.838;2024-02-04T18:44:32;15.30;71.90
27492;DHT22;14927;51.210;6.838;2024-02-04T18:47:17;15.20;71.80
27492;DHT22;14927;51.210;6.838;2024-02-04T18:50:02;15.20;71.90
27492;DHT22;14927;51.210;6.838;2024-02-04T18:52:47;15.20;71.90
27492;DHT22;14927;51.210;6.838;2024-02-04T18:55:31;15.20;71.90
27492;DHT22;14927;51.210;6.838;2024-02-04T19:02:12;15.00;72.10
27492;DHT22;14927;51.210;6.838;2024-02-04T19:04:57;15.30;72.00
27492;DHT22;14927;51.210;6.838;2024-02-04T19:07:42;15.30;72.20
27492;DHT22;14927;51.210;6.838;2024-02-04T19:10:37;15.10;72.30
27492;DHT22;14927;51.210;6.838;2024-02-04T19:13:22;15.20;72.50
27492;DHT22;14927;51.210;6.838;2024-02-04T19:16:09;15.20;72.80
27492;DHT22;14927;51.210;6.838;2024-02-04T19:19:05;15.10;72.80
27492;DHT22;14927;51.210;6.838;2024-02-04T19:21:53;15.10;72.90
27492;DHT22;14927;51.210;6.838;2024-02-04T19:24:37;15.10;72.90
27492;DHT22;14927;51.210;6.838;2024-02-04T19:27:23;15.10;72.80
27492;DHT22;14927;51.210;6.838;2024-02-04T19:30:08;15.10;73.10
27492;DHT22;14927;51.210;6.838;2024-02-04T19:32:54;15.10;73.20
27492;DHT22;14927;51.210;6.838;2024-02-04T19:35:38;15.10;73.20
27492;DHT22;14927;51.210;6.838;2024-02-04T19:38:23;15.10;73.30
27492;DHT22;14927;51.210;6.838;2024-02-04T19:41:07;15.10;73.50
27492;DHT22;14927;51.210;6.838;2024-02-04T19:43:52;15.10;73.50